Terminal Aerodrome Forecast
Issued by NWS

Home | Current Version | Previous Version | Text Only | Print | Product List | Glossary On
Versions: 1 2 3 4 5 6 7 8 9 10 11 12 13 14 15
000
FTUS43 KMPX 302334
TAFRNH
TAF
KRNH 302334Z 3100/3124 05007KT P6SM OVC040
     FM310600 03005KT P6SM OVC027
     FM311500 02007KT P6SM BKN035
     FM311900 02008KT P6SM SCT200=

USA.gov is the U.S. government's official web portal to all federal, state and local government web resources and services.